sensor_id;sensor_type;location;lat;lon;timestamp;pressure;altitude;pressure_sealevel;temperature;humidity
64713;BME280;51140;45.340;5.980;2023-07-31T00:00:10;98470.31;;;18.65;59.97
64713;BME280;51140;45.340;5.980;2023-07-31T00:02:36;98485.09;;;18.84;58.45
64713;BME280;51140;45.340;5.980;2023-07-31T00:05:01;98482.91;;;18.86;61.08
64713;BME280;51140;45.340;5.980;2023-07-31T00:07:27;98467.19;;;18.71;60.47
64713;BME280;51140;45.340;5.980;2023-07-31T00:09:52;98459.56;;;18.43;60.42
64713;BME280;51140;45.340;5.980;2023-07-31T00:12:19;98466.09;;;18.50;59.94
64713;BME280;51140;45.340;5.980;2023-07-31T00:14:44;98456.19;;;18.37;61.88
64713;BME280;51140;45.340;5.980;2023-07-31T00:17:10;98464.78;;;18.48;61.35
64713;BME280;51140;45.340;5.980;2023-07-31T00:19:36;98455.41;;;18.37;61.58
64713;BME280;51140;45.340;5.980;2023-07-31T00:22:01;98454.31;;;18.38;63.59
64713;BME280;51140;45.340;5.980;2023-07-31T00:24:27;98453.50;;;18.37;63.11
64713;BME280;51140;45.340;5.980;2023-07-31T00:26:52;98451.44;;;18.34;63.71
64713;BME280;51140;45.340;5.980;2023-07-31T00:29:17;98447.47;;;18.32;63.49
64713;BME280;51140;45.340;5.980;2023-07-31T00:31:43;98441.63;;;18.38;62.41
64713;BME280;51140;45.340;5.980;2023-07-31T00:34:08;98437.38;;;18.37;61.60
64713;BME280;51140;45.340;5.980;2023-07-31T00:36:33;98435.13;;;18.08;62.34
64713;BME280;51140;45.340;5.980;2023-07-31T00:38:59;98438.47;;;17.56;62.87
64713;BME280;51140;45.340;5.980;2023-07-31T00:41:24;98441.13;;;17.69;62.92
64713;BME280;51140;45.340;5.980;2023-07-31T00:43:49;98434.03;;;17.87;64.27
64713;BME280;51140;45.340;5.980;2023-07-31T00:46:15;98430.84;;;17.85;64.09
64713;BME280;51140;45.340;5.980;2023-07-31T00:48:40;98438.19;;;17.57;65.03
64713;BME280;51140;45.340;5.980;2023-07-31T00:51:07;98438.34;;;17.75;64.33
64713;BME280;51140;45.340;5.980;2023-07-31T00:53:33;98441.25;;;17.64;63.71
64713;BME280;51140;45.340;5.980;2023-07-31T00:55:59;98443.38;;;17.54;65.19
64713;BME280;51140;45.340;5.980;2023-07-31T00:58:24;98442.03;;;17.65;65.63
64713;BME280;51140;45.340;5.980;2023-07-31T01:00:50;98438.88;;;17.63;67.16
64713;BME280;51140;45.340;5.980;2023-07-31T01:03:16;98437.09;;;17.58;66.05
64713;BME280;51140;45.340;5.980;2023-07-31T01:10:54;98445.16;;;17.31;66.57
64713;BME280;51140;45.340;5.980;2023-07-31T01:13:21;98442.91;;;16.97;66.68
64713;BME280;51140;45.340;5.980;2023-07-31T01:15:46;98441.19;;;17.01;67.58
64713;BME280;51140;45.340;5.980;2023-07-31T01:18:12;98447.75;;;17.23;66.75
64713;BME280;51140;45.340;5.980;2023-07-31T01:20:37;98446.66;;;17.10;66.31
64713;BME280;51140;45.340;5.980;2023-07-31T01:26:21;98441.50;;;17.00;67.29
64713;BME280;51140;45.340;5.980;2023-07-31T01:29:06;98444.84;;;16.78;69.65
64713;BME280;51140;45.340;5.980;2023-07-31T01:31:32;98437.94;;;16.77;68.10
64713;BME280;51140;45.340;5.980;2023-07-31T01:34:01;98450.34;;;17.00;68.71
64713;BME280;51140;45.340;5.980;2023-07-31T01:36:27;98443.88;;;16.88;68.30
64713;BME280;51140;45.340;5.980;2023-07-31T01:38:58;98444.19;;;17.00;67.34
64713;BME280;51140;45.340;5.980;2023-07-31T01:41:24;98433.84;;;16.66;69.40
64713;BME280;51140;45.340;5.980;2023-07-31T01:43:49;98436.13;;;16.73;69.18
64713;BME280;51140;45.340;5.980;2023-07-31T01:46:15;98434.16;;;16.92;68.16
64713;BME280;51140;45.340;5.980;2023-07-31T01:48:40;98435.84;;;17.01;68.00
64713;BME280;51140;45.340;5.980;2023-07-31T01:51:05;98434.72;;;16.62;69.13
64713;BME280;51140;45.340;5.980;2023-07-31T01:53:31;98440.88;;;16.62;68.74
64713;BME280;51140;45.340;5.980;2023-07-31T01:55:56;98436.31;;;16.63;68.89
64713;BME280;51140;45.340;5.980;2023-07-31T01:58:22;98436.22;;;16.68;67.77
64713;BME280;51140;45.340;5.980;2023-07-31T02:00:47;98434.47;;;16.44;69.61
64713;BME280;51140;45.340;5.980;2023-07-31T02:03:12;98432.44;;;16.55;68.79
64713;BME280;51140;45.340;5.980;2023-07-31T02:05:45;98437.50;;;16.56;69.61
64713;BME280;51140;45.340;5.980;2023-07-31T02:08:10;98436.66;;;16.42;70.22
64713;BME280;51140;45.340;5.980;2023-07-31T02:10:36;98435.72;;;16.33;71.13
64713;BME280;51140;45.340;5.980;2023-07-31T02:13:01;98435.56;;;16.43;70.86
64713;BME280;51140;45.340;5.980;2023-07-31T02:15:29;98433.69;;;16.12;70.94
64713;BME280;51140;45.340;5.980;2023-07-31T02:17:55;98437.59;;;16.33;70.65
64713;BME280;51140;45.340;5.980;2023-07-31T02:20:20;98429.66;;;16.28;70.37
64713;BME280;51140;45.340;5.980;2023-07-31T02:22:45;98431.25;;;16.29;70.58
64713;BME280;51140;45.340;5.980;2023-07-31T02:25:11;98436.19;;;16.22;71.00
64713;BME280;51140;45.340;5.980;2023-07-31T02:27:36;98424.72;;;16.35;70.26
64713;BME280;51140;45.340;5.980;2023-07-31T02:30:02;98429.63;;;16.14;71.15
64713;BME280;51140;45.340;5.980;2023-07-31T02:32:27;98422.13;;;16.62;68.73
64713;BME280;51140;45.340;5.980;2023-07-31T02:34:52;98424.09;;;16.56;70.33
64713;BME280;51140;45.340;5.980;2023-07-31T02:37:18;98417.47;;;16.35;70.44
64713;BME280;51140;45.340;5.980;2023-07-31T02:39:43;98420.38;;;16.52;70.11
64713;BME280;51140;45.340;5.980;2023-07-31T02:42:09;98411.59;;;16.66;69.08
64713;BME280;51140;45.340;5.980;2023-07-31T02:44:34;98408.50;;;16.58;70.64
64713;BME280;51140;45.340;5.980;2023-07-31T02:46:59;98408.72;;;16.76;69.44
64713;BME280;51140;45.340;5.980;2023-07-31T02:49:25;98408.53;;;16.72;69.32
64713;BME280;51140;45.340;5.980;2023-07-31T02:51:50;98418.81;;;16.51;69.72
64713;BME280;51140;45.340;5.980;2023-07-31T02:54:15;98422.00;;;16.53;69.16
64713;BME280;51140;45.340;5.980;2023-07-31T02:56:41;98420.53;;;16.29;71.32
64713;BME280;51140;45.340;5.980;2023-07-31T02:59:06;98413.59;;;16.28;72.13
64713;BME280;51140;45.340;5.980;2023-07-31T03:01:31;98415.09;;;16.01;73.50
64713;BME280;51140;45.340;5.980;2023-07-31T03:03:57;98417.72;;;16.07;73.58
64713;BME280;51140;45.340;5.980;2023-07-31T03:06:22;98414.59;;;16.32;72.06
64713;BME280;51140;45.340;5.980;2023-07-31T03:08:47;98419.91;;;16.18;71.57
64713;BME280;51140;45.340;5.980;2023-07-31T03:11:13;98413.13;;;16.39;72.16
64713;BME280;51140;45.340;5.980;2023-07-31T03:13:38;98415.31;;;16.37;72.48
64713;BME280;51140;45.340;5.980;2023-07-31T03:16:04;98404.97;;;16.44;71.93
64713;BME280;51140;45.340;5.980;2023-07-31T03:18:29;98401.31;;;16.40;71.67
64713;BME280;51140;45.340;5.980;2023-07-31T03:20:54;98398.94;;;16.52;70.61
64713;BME280;51140;45.340;5.980;2023-07-31T03:23:20;98403.47;;;16.57;70.79
64713;BME280;51140;45.340;5.980;2023-07-31T03:26:02;98411.59;;;16.93;70.44
64713;BME280;51140;45.340;5.980;2023-07-31T03:28:29;98410.59;;;16.62;73.13
64713;BME280;51140;45.340;5.980;2023-07-31T03:30:55;98416.53;;;16.58;73.60
64713;BME280;51140;45.340;5.980;2023-07-31T03:33:20;98423.41;;;16.65;71.94
64713;BME280;51140;45.340;5.980;2023-07-31T03:35:46;98428.16;;;16.54;71.37
64713;BME280;51140;45.340;5.980;2023-07-31T03:38:11;98425.72;;;16.85;72.30
64713;BME280;51140;45.340;5.980;2023-07-31T03:40:36;98434.34;;;16.68;71.12
64713;BME280;51140;45.340;5.980;2023-07-31T03:43:02;98434.94;;;16.92;71.47
64713;BME280;51140;45.340;5.980;2023-07-31T03:45:27;98431.78;;;16.44;71.00
64713;BME280;51140;45.340;5.980;2023-07-31T03:47:53;98439.38;;;16.70;71.01
64713;BME280;51140;45.340;5.980;2023-07-31T03:50:20;98444.50;;;16.52;71.49
64713;BME280;51140;45.340;5.980;2023-07-31T03:52:45;98446.19;;;16.48;71.14
64713;BME280;51140;45.340;5.980;2023-07-31T03:55:10;98452.88;;;16.65;69.98
64713;BME280;51140;45.340;5.980;2023-07-31T03:57:36;98451.31;;;16.31;71.71
64713;BME280;51140;45.340;5.980;2023-07-31T04:00:01;98470.59;;;15.96;72.53
64713;BME280;51140;45.340;5.980;2023-07-31T04:02:26;98468.16;;;15.81;73.16
64713;BME280;51140;45.340;5.980;2023-07-31T04:04:52;98462.38;;;15.74;73.48
64713;BME280;51140;45.340;5.980;2023-07-31T04:07:17;98470.25;;;15.84;72.63
64713;BME280;51140;45.340;5.980;2023-07-31T04:09:42;98468.91;;;16.19;71.86
64713;BME280;51140;45.340;5.980;2023-07-31T04:12:08;98473.28;;;15.96;73.17
64713;BME280;51140;45.340;5.980;2023-07-31T04:14:33;98479.16;;;16.30;71.41
64713;BME280;51140;45.340;5.980;2023-07-31T04:16:59;98472.66;;;16.36;71.77
64713;BME280;51140;45.340;5.980;2023-07-31T04:19:24;98467.38;;;16.31;71.60
64713;BME280;51140;45.340;5.980;2023-07-31T04:21:49;98459.44;;;16.26;70.76
64713;BME280;51140;45.340;5.980;2023-07-31T04:24:15;98459.25;;;16.55;69.54
64713;BME280;51140;45.340;5.980;2023-07-31T04:26:41;98459.09;;;16.46;70.22
64713;BME280;51140;45.340;5.980;2023-07-31T04:29:06;98455.91;;;16.12;71.22
64713;BME280;51140;45.340;5.980;2023-07-31T04:31:33;98448.41;;;15.77;73.65
64713;BME280;51140;45.340;5.980;2023-07-31T04:33:59;98444.50;;;15.51;74.17
64713;BME280;51140;45.340;5.980;2023-07-31T04:36:24;98446.31;;;15.74;73.47
64713;BME280;51140;45.340;5.980;2023-07-31T04:38:49;98445.16;;;15.80;72.42
64713;BME280;51140;45.340;5.980;2023-07-31T04:41:15;98437.91;;;15.62;73.62
64713;BME280;51140;45.340;5.980;2023-07-31T04:43:40;98448.06;;;16.16;72.66
64713;BME280;51140;45.340;5.980;2023-07-31T04:46:06;98454.63;;;15.91;73.63
64713;BME280;51140;45.340;5.980;2023-07-31T04:48:31;98466.06;;;15.78;75.24
64713;BME280;51140;45.340;5.980;2023-07-31T04:50:56;98476.63;;;15.69;74.23
64713;BME280;51140;45.340;5.980;2023-07-31T04:53:23;98479.66;;;15.63;74.16
64713;BME280;51140;45.340;5.980;2023-07-31T04:55:48;98488.94;;;15.89;73.42
64713;BME280;51140;45.340;5.980;2023-07-31T04:58:13;98484.41;;;16.22;71.81
64713;BME280;51140;45.340;5.980;2023-07-31T05:00:39;98481.47;;;16.37;71.35
64713;BME280;51140;45.340;5.980;2023-07-31T05:03:04;98474.53;;;16.03;72.42
64713;BME280;51140;45.340;5.980;2023-07-31T05:05:30;98481.75;;;16.03;73.43
64713;BME280;51140;45.340;5.980;2023-07-31T05:07:55;98479.34;;;16.20;75.47
64713;BME280;51140;45.340;5.980;2023-07-31T05:10:20;98481.19;;;16.38;74.31
64713;BME280;51140;45.340;5.980;2023-07-31T05:12:46;98472.47;;;16.79;73.82
64713;BME280;51140;45.340;5.980;2023-07-31T05:15:11;98480.13;;;16.99;72.81
64713;BME280;51140;45.340;5.980;2023-07-31T05:17:37;98483.41;;;17.09;73.22
64713;BME280;51140;45.340;5.980;2023-07-31T05:20:02;98480.25;;;16.94;73.62
64713;BME280;51140;45.340;5.980;2023-07-31T05:22:27;98476.53;;;16.44;75.72
64713;BME280;51140;45.340;5.980;2023-07-31T05:24:53;98471.88;;;16.68;74.36
64713;BME280;51140;45.340;5.980;2023-07-31T05:27:19;98476.88;;;16.24;75.27
64713;BME280;51140;45.340;5.980;2023-07-31T05:29:44;98483.50;;;15.94;76.45
64713;BME280;51140;45.340;5.980;2023-07-31T05:32:10;98480.09;;;16.39;74.99
64713;BME280;51140;45.340;5.980;2023-07-31T05:34:35;98472.91;;;15.84;77.19
64713;BME280;51140;45.340;5.980;2023-07-31T05:37:01;98478.28;;;15.84;76.77
64713;BME280;51140;45.340;5.980;2023-07-31T05:39:26;98479.78;;;15.90;75.87
64713;BME280;51140;45.340;5.980;2023-07-31T05:41:51;98486.09;;;15.99;76.31
64713;BME280;51140;45.340;5.980;2023-07-31T05:44:17;98490.19;;;16.29;76.43
64713;BME280;51140;45.340;5.980;2023-07-31T05:46:42;98476.28;;;16.27;76.49
64713;BME280;51140;45.340;5.980;2023-07-31T05:49:07;98473.03;;;16.62;74.32
64713;BME280;51140;45.340;5.980;2023-07-31T05:51:33;98472.56;;;16.41;75.14
64713;BME280;51140;45.340;5.980;2023-07-31T05:53:58;98468.22;;;16.45;75.46
64713;BME280;51140;45.340;5.980;2023-07-31T05:56:23;98476.16;;;16.50;76.27
64713;BME280;51140;45.340;5.980;2023-07-31T05:58:49;98469.66;;;16.56;75.92
64713;BME280;51140;45.340;5.980;2023-07-31T06:01:16;98465.66;;;17.00;74.91
64713;BME280;51140;45.340;5.980;2023-07-31T06:03:42;98470.41;;;16.43;77.07
64713;BME280;51140;45.340;5.980;2023-07-31T06:06:07;98467.91;;;16.66;76.54
64713;BME280;51140;45.340;5.980;2023-07-31T06:08:33;98470.66;;;16.61;76.37
64713;BME280;51140;45.340;5.980;2023-07-31T06:10:58;98472.78;;;16.91;75.52
64713;BME280;51140;45.340;5.980;2023-07-31T06:13:24;98459.53;;;16.67;76.07
64713;BME280;51140;45.340;5.980;2023-07-31T06:15:49;98457.72;;;16.95;74.94
64713;BME280;51140;45.340;5.980;2023-07-31T06:18:14;98463.81;;;16.54;76.68
64713;BME280;51140;45.340;5.980;2023-07-31T06:20:40;98460.59;;;16.20;78.25
64713;BME280;51140;45.340;5.980;2023-07-31T06:23:06;98462.06;;;15.94;78.70
64713;BME280;51140;45.340;5.980;2023-07-31T06:25:31;98444.78;;;15.68;78.99
64713;BME280;51140;45.340;5.980;2023-07-31T06:27:56;98447.09;;;15.93;78.49
64713;BME280;51140;45.340;5.980;2023-07-31T06:30:22;98441.38;;;15.99;78.22
64713;BME280;51140;45.340;5.980;2023-07-31T06:32:47;98430.25;;;16.25;76.81
64713;BME280;51140;45.340;5.980;2023-07-31T06:35:12;98421.00;;;16.49;73.83
64713;BME280;51140;45.340;5.980;2023-07-31T06:37:38;98416.81;;;16.43;74.24
64713;BME280;51140;45.340;5.980;2023-07-31T06:40:06;98422.13;;;16.30;75.17
64713;BME280;51140;45.340;5.980;2023-07-31T06:42:32;98426.53;;;16.53;74.84
64713;BME280;51140;45.340;5.980;2023-07-31T06:44:58;98426.56;;;16.67;74.50
64713;BME280;51140;45.340;5.980;2023-07-31T06:47:23;98426.34;;;16.49;75.88
64713;BME280;51140;45.340;5.980;2023-07-31T06:49:49;98433.84;;;16.66;74.31
64713;BME280;51140;45.340;5.980;2023-07-31T06:52:14;98430.97;;;16.76;74.89
64713;BME280;51140;45.340;5.980;2023-07-31T06:54:39;98443.03;;;16.46;75.64
64713;BME280;51140;45.340;5.980;2023-07-31T06:57:05;98441.56;;;16.54;75.00
64713;BME280;51140;45.340;5.980;2023-07-31T06:59:30;98435.13;;;16.55;74.97
64713;BME280;51140;45.340;5.980;2023-07-31T07:01:55;98432.06;;;16.89;74.80
64713;BME280;51140;45.340;5.980;2023-07-31T07:04:21;98434.94;;;17.20;74.08
64713;BME280;51140;45.340;5.980;2023-07-31T07:06:46;98443.28;;;17.18;72.67
64713;BME280;51140;45.340;5.980;2023-07-31T07:09:12;98448.97;;;17.03;74.07
64713;BME280;51140;45.340;5.980;2023-07-31T07:11:37;98450.41;;;16.54;75.83
64713;BME280;51140;45.340;5.980;2023-07-31T07:14:03;98449.69;;;16.30;77.19
64713;BME280;51140;45.340;5.980;2023-07-31T07:16:28;98435.56;;;16.11;77.84
64713;BME280;51140;45.340;5.980;2023-07-31T07:18:54;98429.88;;;16.31;76.24
64713;BME280;51140;45.340;5.980;2023-07-31T07:21:19;98429.47;;;16.56;74.24
64713;BME280;51140;45.340;5.980;2023-07-31T07:23:45;98436.22;;;16.35;74.93
64713;BME280;51140;45.340;5.980;2023-07-31T07:26:10;98430.16;;;16.62;74.73
64713;BME280;51140;45.340;5.980;2023-07-31T07:28:35;98444.00;;;16.96;73.14
64713;BME280;51140;45.340;5.980;2023-07-31T07:31:02;98436.13;;;16.73;74.05
64713;BME280;51140;45.340;5.980;2023-07-31T07:33:28;98438.19;;;16.62;74.68
64713;BME280;51140;45.340;5.980;2023-07-31T07:35:53;98429.91;;;17.67;69.85
64713;BME280;51140;45.340;5.980;2023-07-31T07:38:19;98430.59;;;17.73;69.30
64713;BME280;51140;45.340;5.980;2023-07-31T07:40:44;98429.84;;;19.26;63.50
64713;BME280;51140;45.340;5.980;2023-07-31T07:43:12;98423.44;;;20.39;59.39
64713;BME280;51140;45.340;5.980;2023-07-31T07:45:37;98468.19;;;21.83;54.15
64713;BME280;51140;45.340;5.980;2023-07-31T07:48:03;98439.03;;;22.09;54.21
64713;BME280;51140;45.340;5.980;2023-07-31T07:50:28;98420.13;;;21.67;54.09
64713;BME280;51140;45.340;5.980;2023-07-31T07:52:53;98410.06;;;21.27;55.11
64713;BME280;51140;45.340;5.980;2023-07-31T07:55:19;98441.63;;;22.05;54.64
64713;BME280;51140;45.340;5.980;2023-07-31T07:57:44;98424.28;;;22.06;53.52
64713;BME280;51140;45.340;5.980;2023-07-31T08:00:11;98510.56;;;23.43;50.50
64713;BME280;51140;45.340;5.980;2023-07-31T08:02:37;98596.34;;;24.23;46.54
64713;BME280;51140;45.340;5.980;2023-07-31T08:05:02;98497.34;;;23.53;48.88
64713;BME280;51140;45.340;5.980;2023-07-31T08:07:28;98539.38;;;24.23;47.09
64713;BME280;51140;45.340;5.980;2023-07-31T08:09:53;98564.59;;;24.52;45.45
64713;BME280;51140;45.340;5.980;2023-07-31T08:12:19;98594.34;;;24.88;44.53
64713;BME280;51140;45.340;5.980;2023-07-31T08:14:44;98627.31;;;26.08;43.23
64713;BME280;51140;45.340;5.980;2023-07-31T08:17:09;98644.50;;;26.12;42.39
64713;BME280;51140;45.340;5.980;2023-07-31T08:19:35;98666.56;;;25.76;41.72
64713;BME280;51140;45.340;5.980;2023-07-31T08:22:00;98681.38;;;26.60;40.12
64713;BME280;51140;45.340;5.980;2023-07-31T08:24:26;98669.63;;;26.21;41.17
64713;BME280;51140;45.340;5.980;2023-07-31T08:26:51;98654.72;;;26.69;40.41
64713;BME280;51140;45.340;5.980;2023-07-31T08:29:16;98713.41;;;27.40;38.75
64713;BME280;51140;45.340;5.980;2023-07-31T08:31:42;98648.97;;;26.90;40.33
64713;BME280;51140;45.340;5.980;2023-07-31T08:34:07;98725.34;;;27.73;38.05
64713;BME280;51140;45.340;5.980;2023-07-31T08:36:32;98733.78;;;27.88;38.10
64713;BME280;51140;45.340;5.980;2023-07-31T08:38:58;98652.97;;;27.79;40.13
64713;BME280;51140;45.340;5.980;2023-07-31T08:41:23;98743.25;;;27.52;37.66
64713;BME280;51140;45.340;5.980;2023-07-31T08:43:52;98650.22;;;26.07;39.23
64713;BME280;51140;45.340;5.980;2023-07-31T08:46:18;98677.28;;;26.50;38.61
64713;BME280;51140;45.340;5.980;2023-07-31T08:48:45;98631.97;;;27.38;40.19
64713;BME280;51140;45.340;5.980;2023-07-31T08:51:14;98722.53;;;27.28;37.30
64713;BME280;51140;45.340;5.980;2023-07-31T08:53:39;98694.41;;;27.43;38.26
64713;BME280;51140;45.340;5.980;2023-07-31T08:56:05;98619.63;;;27.44;40.29
64713;BME280;51140;45.340;5.980;2023-07-31T08:58:32;98662.31;;;27.56;38.71
64713;BME280;51140;45.340;5.980;2023-07-31T09:01:01;98629.94;;;27.54;39.37
64713;BME280;51140;45.340;5.980;2023-07-31T09:03:26;98645.59;;;27.38;38.15
64713;BME280;51140;45.340;5.980;2023-07-31T09:05:53;98698.81;;;28.16;38.58
64713;BME280;51140;45.340;5.980;2023-07-31T09:08:21;98656.38;;;27.50;37.93
64713;BME280;51140;45.340;5.980;2023-07-31T09:10:47;98611.03;;;27.23;40.33
64713;BME280;51140;45.340;5.980;2023-07-31T09:13:13;98620.53;;;27.10;38.14
64713;BME280;51140;45.340;5.980;2023-07-31T09:15:40;98610.94;;;27.39;38.94
64713;BME280;51140;45.340;5.980;2023-07-31T09:18:06;98660.81;;;27.20;36.63
64713;BME280;51140;45.340;5.980;2023-07-31T09:20:32;98582.31;;;27.06;41.26
64713;BME280;51140;45.340;5.980;2023-07-31T09:23:06;98645.81;;;27.29;38.20
64713;BME280;51140;45.340;5.980;2023-07-31T09:25:32;98606.97;;;27.55;38.84
64713;BME280;51140;45.340;5.980;2023-07-31T09:28:08;98573.06;;;27.11;38.88
64713;BME280;51140;45.340;5.980;2023-07-31T09:30:51;98561.69;;;27.73;39.76
64713;BME280;51140;45.340;5.980;2023-07-31T09:33:17;98566.81;;;27.78;38.25
64713;BME280;51140;45.340;5.980;2023-07-31T09:35:43;98598.94;;;27.66;38.29
64713;BME280;51140;45.340;5.980;2023-07-31T09:38:13;98603.41;;;27.32;38.14
64713;BME280;51140;45.340;5.980;2023-07-31T09:40:42;98581.69;;;26.74;38.51
64713;BME280;51140;45.340;5.980;2023-07-31T09:43:09;98580.56;;;26.56;38.63
64713;BME280;51140;45.340;5.980;2023-07-31T09:45:39;98477.00;;;24.67;41.60
64713;BME280;51140;45.340;5.980;2023-07-31T09:48:15;98514.75;;;25.97;39.51
64713;BME280;51140;45.340;5.980;2023-07-31T09:50:43;98519.78;;;25.79;39.51
64713;BME280;51140;45.340;5.980;2023-07-31T09:53:09;98504.28;;;26.34;38.96
64713;BME280;51140;45.340;5.980;2023-07-31T09:55:36;98404.19;;;26.69;40.76
64713;BME280;51140;45.340;5.980;2023-07-31T09:58:07;98553.81;;;26.43;37.71
64713;BME280;51140;45.340;5.980;2023-07-31T10:00:33;98451.66;;;26.91;40.71
64713;BME280;51140;45.340;5.980;2023-07-31T10:03:04;98549.91;;;26.59;38.23
64713;BME280;51140;45.340;5.980;2023-07-31T10:05:50;98470.06;;;26.55;39.40
64713;BME280;51140;45.340;5.980;2023-07-31T10:08:18;98522.88;;;26.70;37.83
64713;BME280;51140;45.340;5.980;2023-07-31T10:10:45;98471.56;;;26.95;40.54
64713;BME280;51140;45.340;5.980;2023-07-31T10:13:12;98519.97;;;27.01;38.57
64713;BME280;51140;45.340;5.980;2023-07-31T10:15:38;98440.63;;;27.06;40.47
64713;BME280;51140;45.340;5.980;2023-07-31T10:18:06;98418.84;;;27.06;41.42
64713;BME280;51140;45.340;5.980;2023-07-31T10:20:31;98432.03;;;27.04;40.04
64713;BME280;51140;45.340;5.980;2023-07-31T10:22:57;98310.41;;;27.19;44.30
64713;BME280;51140;45.340;5.980;2023-07-31T10:25:26;98339.91;;;27.40;43.60
64713;BME280;51140;45.340;5.980;2023-07-31T10:27:52;98458.00;;;27.21;38.78
64713;BME280;51140;45.340;5.980;2023-07-31T10:30:22;98496.53;;;26.97;37.94
64713;BME280;51140;45.340;5.980;2023-07-31T10:32:51;98431.34;;;26.85;40.71
64713;BME280;51140;45.340;5.980;2023-07-31T10:35:17;98399.31;;;27.53;40.60
64713;BME280;51140;45.340;5.980;2023-07-31T10:37:43;98500.56;;;27.52;36.90
64713;BME280;51140;45.340;5.980;2023-07-31T10:40:27;98472.25;;;27.37;37.73
64713;BME280;51140;45.340;5.980;2023-07-31T10:42:57;98504.63;;;27.16;36.67
64713;BME280;51140;45.340;5.980;2023-07-31T10:45:33;98434.78;;;27.31;39.75
64713;BME280;51140;45.340;5.980;2023-07-31T10:48:03;98475.16;;;26.99;38.06
64713;BME280;51140;45.340;5.980;2023-07-31T10:50:30;98395.84;;;27.30;39.35
64713;BME280;51140;45.340;5.980;2023-07-31T10:52:58;98446.78;;;27.26;38.50
64713;BME280;51140;45.340;5.980;2023-07-31T10:58:14;98403.91;;;26.97;39.65
64713;BME280;51140;45.340;5.980;2023-07-31T11:00:44;98261.09;;;27.61;41.87
64713;BME280;51140;45.340;5.980;2023-07-31T11:03:12;98465.25;;;27.36;37.51
64713;BME280;51140;45.340;5.980;2023-07-31T11:08:17;98350.22;;;27.27;41.45
64713;BME280;51140;45.340;5.980;2023-07-31T11:10:45;98322.97;;;27.53;41.66
64713;BME280;51140;45.340;5.980;2023-07-31T11:13:12;98333.94;;;27.60;42.15
64713;BME280;51140;45.340;5.980;2023-07-31T11:15:37;98405.97;;;27.56;38.17
64713;BME280;51140;45.340;5.980;2023-07-31T11:18:03;98498.22;;;27.27;35.83
64713;BME280;51140;45.340;5.980;2023-07-31T11:20:31;98406.09;;;27.40;37.38
64713;BME280;51140;45.340;5.980;2023-07-31T11:22:59;98347.22;;;27.62;40.96
64713;BME280;51140;45.340;5.980;2023-07-31T11:25:25;98363.88;;;27.87;38.40
64713;BME280;51140;45.340;5.980;2023-07-31T11:27:51;98484.56;;;27.76;35.61
64713;BME280;51140;45.340;5.980;2023-07-31T11:30:19;98418.53;;;27.94;38.13
64713;BME280;51140;45.340;5.980;2023-07-31T11:32:45;98416.91;;;27.33;38.28
64713;BME280;51140;45.340;5.980;2023-07-31T11:35:13;98343.69;;;27.95;39.00
64713;BME280;51140;45.340;5.980;2023-07-31T11:37:40;98466.63;;;27.49;36.53
64713;BME280;51140;45.340;5.980;2023-07-31T11:40:07;98452.28;;;26.61;37.41
64713;BME280;51140;45.340;5.980;2023-07-31T11:42:32;98447.81;;;27.18;35.91
64713;BME280;51140;45.340;5.980;2023-07-31T11:45:02;98431.22;;;26.58;36.40
64713;BME280;51140;45.340;5.980;2023-07-31T11:47:27;98335.25;;;26.88;39.72
64713;BME280;51140;45.340;5.980;2023-07-31T11:49:53;98325.31;;;26.99;40.21
64713;BME280;51140;45.340;5.980;2023-07-31T11:52:18;98285.06;;;26.89;41.13
64713;BME280;51140;45.340;5.980;2023-07-31T11:54:48;98187.72;;;27.45;42.77
64713;BME280;51140;45.340;5.980;2023-07-31T11:57:14;98275.75;;;27.49;39.68
64713;BME280;51140;45.340;5.980;2023-07-31T11:59:41;98253.56;;;27.47;40.96
64713;BME280;51140;45.340;5.980;2023-07-31T12:02:07;98279.25;;;27.79;39.79
64713;BME280;51140;45.340;5.980;2023-07-31T12:04:33;98365.84;;;27.04;37.58
64713;BME280;51140;45.340;5.980;2023-07-31T12:07:00;98301.78;;;27.13;39.73
64713;BME280;51140;45.340;5.980;2023-07-31T12:09:25;98293.53;;;26.35;39.86
64713;BME280;51140;45.340;5.980;2023-07-31T12:11:51;98239.22;;;27.54;39.43
64713;BME280;51140;45.340;5.980;2023-07-31T12:16:47;98310.53;;;27.56;38.05
64713;BME280;51140;45.340;5.980;2023-07-31T12:19:12;98286.88;;;27.37;39.25
64713;BME280;51140;45.340;5.980;2023-07-31T12:21:38;98247.41;;;27.57;39.89
64713;BME280;51140;45.340;5.980;2023-07-31T12:24:04;98290.72;;;27.33;39.46
64713;BME280;51140;45.340;5.980;2023-07-31T12:26:34;98233.44;;;27.59;38.72
64713;BME280;51140;45.340;5.980;2023-07-31T12:28:59;98271.97;;;26.49;39.56
64713;BME280;51140;45.340;5.980;2023-07-31T12:31:27;98116.22;;;27.29;44.12
64713;BME280;51140;45.340;5.980;2023-07-31T12:33:55;98221.38;;;27.30;39.96
64713;BME280;51140;45.340;5.980;2023-07-31T12:36:23;98114.22;;;27.59;43.04
64713;BME280;51140;45.340;5.980;2023-07-31T12:38:52;98220.16;;;27.57;39.98
64713;BME280;51140;45.340;5.980;2023-07-31T12:41:18;98303.78;;;26.90;38.10
64713;BME280;51140;45.340;5.980;2023-07-31T12:43:45;98138.94;;;27.40;42.19
64713;BME280;51140;45.340;5.980;2023-07-31T12:46:11;98193.53;;;27.44;40.45
64713;BME280;51140;45.340;5.980;2023-07-31T12:48:37;98211.34;;;27.74;38.82
64713;BME280;51140;45.340;5.980;2023-07-31T12:51:03;98207.09;;;27.77;39.65
64713;BME280;51140;45.340;5.980;2023-07-31T12:53:29;98209.66;;;27.26;39.83
64713;BME280;51140;45.340;5.980;2023-07-31T12:55:58;98024.41;;;27.84;46.69
64713;BME280;51140;45.340;5.980;2023-07-31T12:58:23;98191.50;;;28.18;38.96
64713;BME280;51140;45.340;5.980;2023-07-31T13:00:49;98103.94;;;27.90;43.68
64713;BME280;51140;45.340;5.980;2023-07-31T13:03:14;98077.31;;;27.72;43.10
64713;BME280;51140;45.340;5.980;2023-07-31T13:05:40;98137.59;;;27.60;40.07
64713;BME280;51140;45.340;5.980;2023-07-31T13:08:05;98127.63;;;27.38;41.33
64713;BME280;51140;45.340;5.980;2023-07-31T13:10:31;97971.84;;;27.91;46.53